Time;durP1;ratioP1;P1;durP2;ratioP2;P2;SDS_P1;SDS_P2;PMS_P1;PMS_P2;Temp;Humidity;BMP_temperature;BMP_pressure;BME280_temperature;BME280_humidity;BME280_pressure;Samples;Min_cycle;Max_cycle;Signal;HPM_P1;HPM_P2
2021/04/23 00:00:41;;;;;;;13.13;4.38;;;7.80;63.10;;;;;;5072525;28;20047;-47
2021/04/23 00:03:14;;;;;;;13.02;4.68;;;7.70;63.20;;;;;;5062112;28;20102;-46
2021/04/23 00:05:41;;;;;;;11.95;4.68;;;7.70;63.30;;;;;;5071965;28;20072;-47
2021/04/23 00:08:09;;;;;;;11.82;4.68;;;7.70;63.30;;;;;;5072991;28;20055;-46
2021/04/23 00:10:35;;;;;;;13.27;4.85;;;7.80;63.40;;;;;;5072461;28;20487;-46
2021/04/23 00:13:02;;;;;;;;;;;7.80;63.20;;;;;;5072266;28;20537;-47
2021/04/23 00:15:29;;;;;;;13.45;4.88;;;7.80;63.00;;;;;;5071899;28;19928;-46
2021/04/23 00:17:56;;;;;;;15.93;4.88;;;7.80;63.10;;;;;;5071699;28;20098;-44
2021/04/23 00:20:27;;;;;;;16.60;4.93;;;7.70;63.40;;;;;;5070959;28;20094;-47
2021/04/23 00:22:56;;;;;;;13.85;4.80;;;7.60;63.70;;;;;;5072520;28;20036;-46
2021/04/23 00:25:25;;;;;;;13.93;4.78;;;7.60;64.00;;;;;;5072288;28;20503;-47
2021/04/23 00:28:00;;;;;;;13.50;4.68;;;7.60;64.10;;;;;;5045551;28;20514;-47
2021/04/23 00:30:31;;;;;;;11.30;4.50;;;7.60;64.10;;;;;;5072033;28;20048;-50
2021/04/23 00:32:57;;;;;;;13.25;4.50;;;7.60;64.00;;;;;;5046724;28;20511;-47
2021/04/23 00:35:26;;;;;;;;;;;7.70;63.80;;;;;;5072735;28;20036;-49
2021/04/23 00:37:58;;;;;;;12.32;4.95;;;7.70;63.70;;;;;;5072199;28;20386;-47
2021/04/23 00:40:31;;;;;;;13.38;4.85;;;7.70;63.40;;;;;;5071838;28;20075;-47
2021/04/23 00:43:06;;;;;;;11.90;5.18;;;7.70;63.30;;;;;;5071784;28;20029;-48
2021/04/23 00:45:34;;;;;;;10.93;4.40;;;7.70;63.40;;;;;;5071559;28;20056;-45
2021/04/23 00:48:04;;;;;;;15.80;5.13;;;7.70;64.10;;;;;;5072049;28;20109;-49
2021/04/23 00:50:45;;;;;;;17.88;4.80;;;7.70;63.70;;;;;;5072196;28;20556;-50
2021/04/23 00:53:27;;;;;;;12.18;4.60;;;7.70;63.60;;;;;;5070334;28;20051;-48
2021/04/23 00:55:57;;;;;;;9.70;4.65;;;7.70;63.70;;;;;;5071473;28;20052;-52
2021/04/23 00:58:27;;;;;;;12.07;4.97;;;7.70;63.70;;;;;;5071696;28;20053;-53
2021/04/23 01:00:58;;;;;;;18.73;5.35;;;7.70;63.70;;;;;;5071922;28;20119;-50
2021/04/23 01:03:26;;;;;;;15.27;4.82;;;7.70;63.60;;;;;;5059714;28;20106;-53
2021/04/23 01:05:55;;;;;;;12.95;5.05;;;7.70;63.60;;;;;;5071472;28;20040;-51
2021/04/23 01:08:25;;;;;;;13.10;5.15;;;7.70;63.80;;;;;;5072199;28;20048;-48
2021/04/23 01:11:00;;;;;;;14.93;5.00;;;7.60;63.80;;;;;;5070961;28;20052;-48
2021/04/23 01:13:31;;;;;;;12.50;4.60;;;7.60;63.90;;;;;;5071784;28;20078;-52
2021/04/23 01:16:03;;;;;;;12.93;4.75;;;7.60;64.30;;;;;;5071838;28;20056;-50
2021/04/23 01:18:31;;;;;;;13.40;4.88;;;7.60;63.90;;;;;;5071763;28;20052;-48
2021/04/23 01:21:13;;;;;;;16.25;5.30;;;7.60;63.90;;;;;;5071341;28;20064;-47
2021/04/23 01:23:41;;;;;;;16.55;4.95;;;7.60;63.90;;;;;;5071870;28;20079;-52
2021/04/23 01:26:09;;;;;;;14.02;4.88;;;7.60;64.00;;;;;;5070261;28;20069;-50
2021/04/23 01:28:39;;;;;;;11.63;4.55;;;7.60;63.90;;;;;;5050075;28;20479;-47
2021/04/23 01:31:08;;;;;;;14.32;5.05;;;7.60;64.00;;;;;;5052020;28;20060;-49
2021/04/23 01:33:37;;;;;;;13.88;5.47;;;7.60;64.00;;;;;;5052351;28;20064;-47
2021/04/23 01:36:06;;;;;;;10.55;4.80;;;7.60;63.90;;;;;;5051640;28;20136;-47
2021/04/23 01:38:34;;;;;;;13.27;5.13;;;7.60;63.90;;;;;;5051276;28;20045;-47
2021/04/23 01:41:00;;;;;;;11.10;4.40;;;7.60;63.80;;;;;;5050879;28;20131;-46
2021/04/23 01:43:27;;;;;;;10.50;4.60;;;7.60;64.10;;;;;;5051513;28;20091;-45
2021/04/23 01:45:53;;;;;;;;;;;7.60;63.90;;;;;;5051138;28;20048;-45
2021/04/23 01:48:20;;;;;;;10.13;4.80;;;7.60;63.70;;;;;;5051688;28;19929;-46
2021/04/23 01:50:47;;;;;;;14.38;4.80;;;7.60;63.50;;;;;;5051415;28;20479;-46
2021/04/23 01:53:14;;;;;;;;;;;7.60;63.50;;;;;;5051648;28;20131;-45
2021/04/23 01:55:43;;;;;;;11.43;4.50;;;7.60;63.50;;;;;;5050906;28;19925;-47
2021/04/23 01:58:10;;;;;;;16.05;4.50;;;7.60;63.60;;;;;;5051291;28;20048;-46
2021/04/23 02:00:45;;;;;;;15.40;4.50;;;7.50;63.60;;;;;;5050890;28;20496;-47
2021/04/23 02:03:12;;;;;;;13.80;5.23;;;7.50;63.90;;;;;;5050872;28;20519;-47
2021/04/23 02:05:40;;;;;;;11.05;4.43;;;7.50;63.80;;;;;;5051151;28;20283;-48
2021/04/23 02:08:09;;;;;;;10.23;4.97;;;7.50;64.00;;;;;;5050486;28;20106;-48
2021/04/23 02:10:46;;;;;;;14.20;5.13;;;7.50;64.20;;;;;;5051129;28;20103;-47
2021/04/23 02:13:14;;;;;;;12.05;4.57;;;7.40;64.20;;;;;;5049781;28;20053;-46
2021/04/23 02:15:41;;;;;;;15.93;5.72;;;7.40;64.40;;;;;;5051146;28;20459;-48
2021/04/23 02:18:08;;;;;;;15.00;5.20;;;7.30;64.50;;;;;;5052898;28;20040;-46
2021/04/23 02:20:37;;;;;;;14.45;5.50;;;7.30;64.70;;;;;;5055072;28;20065;-48
2021/04/23 02:23:11;;;;;;;15.55;5.47;;;7.30;64.90;;;;;;5054015;28;20049;-45
2021/04/23 02:25:39;;;;;;;11.85;5.50;;;7.30;64.70;;;;;;5054853;28;20091;-46
2021/04/23 02:28:08;;;;;;;12.23;5.22;;;7.30;64.60;;;;;;5054405;28;20076;-45
2021/04/23 02:30:39;;;;;;;15.10;5.75;;;7.30;64.60;;;;;;5054417;28;20053;-45
2021/04/23 02:33:10;;;;;;;15.48;5.43;;;7.30;64.20;;;;;;5054423;28;20045;-47
2021/04/23 02:35:38;;;;;;;13.65;4.97;;;7.20;64.50;;;;;;5040706;28;20063;-45
2021/04/23 02:38:05;;;;;;;12.32;5.13;;;7.20;64.40;;;;;;5053802;28;20053;-45
2021/04/23 02:40:33;;;;;;;14.50;5.15;;;7.20;64.20;;;;;;5053965;28;20491;-46
2021/04/23 02:43:05;;;;;;;12.65;4.93;;;7.20;64.10;;;;;;5054490;28;20056;-45
2021/04/23 02:45:34;;;;;;;12.95;5.07;;;7.20;64.00;;;;;;5054218;28;20063;-49
2021/04/23 02:48:01;;;;;;;16.77;5.55;;;7.30;63.90;;;;;;5054384;28;20499;-45
2021/04/23 02:50:30;;;;;;;13.57;4.82;;;7.30;63.90;;;;;;5053895;28;20096;-45
2021/04/23 02:52:58;;;;;;;17.02;5.00;;;7.30;63.90;;;;;;5053544;28;20114;-46
2021/04/23 02:55:25;;;;;;;14.27;5.90;;;7.20;64.00;;;;;;5053916;28;20377;-47
2021/04/23 02:58:07;;;;;;;13.98;5.20;;;7.20;64.10;;;;;;5053715;28;20073;-45
2021/04/23 03:00:38;;;;;;;13.68;5.70;;;7.20;64.90;;;;;;5054006;28;20041;-45
2021/04/23 03:03:07;;;;;;;15.20;6.00;;;7.20;64.50;;;;;;5053607;28;20040;-46
2021/04/23 03:05:35;;;;;;;14.52;5.53;;;7.20;64.50;;;;;;5053453;28;20107;-47
2021/04/23 03:08:03;;;;;;;16.33;5.82;;;7.20;64.90;;;;;;5053669;28;20040;-46
2021/04/23 03:10:33;;;;;;;16.13;5.10;;;7.20;64.90;;;;;;5052516;28;20412;-47
2021/04/23 03:13:10;;;;;;;12.63;5.20;;;7.10;65.00;;;;;;5053524;28;20103;-52
2021/04/23 03:15:37;;;;;;;13.27;4.85;;;7.10;65.30;;;;;;5053645;28;20052;-50
2021/04/23 03:18:04;;;;;;;12.32;4.80;;;7.10;65.50;;;;;;5053869;28;20047;-47
2021/04/23 03:20:31;;;;;;;10.80;5.10;;;7.10;65.60;;;;;;5054218;28;20084;-53
2021/04/23 03:22:59;;;;;;;14.55;5.60;;;7.20;65.50;;;;;;5054013;28;20048;-53
2021/04/23 03:25:28;;;;;;;11.00;5.22;;;7.20;65.20;;;;;;5054401;28;20087;-48
2021/04/23 03:27:54;;;;;;;18.23;5.82;;;7.20;65.30;;;;;;5054259;28;20053;-48
2021/04/23 03:30:23;;;;;;;;;;;7.10;65.30;;;;;;5054888;28;20053;-50
2021/04/23 03:32:49;;;;;;;11.05;5.22;;;7.20;65.10;;;;;;5053004;28;19956;-46
2021/04/23 03:35:16;;;;;;;;;;;7.10;64.90;;;;;;5053320;28;20057;-51
2021/04/23 03:37:44;;;;;;;11.00;4.75;;;7.00;64.80;;;;;;5053664;28;19921;-49
2021/04/23 03:40:13;;;;;;;11.88;5.18;;;7.00;64.90;;;;;;5053716;28;20118;-53
2021/04/23 03:42:40;;;;;;;12.27;4.82;;;7.00;65.10;;;;;;5053494;28;20557;-48
2021/04/23 03:45:11;;;;;;;13.63;5.00;;;7.00;65.00;;;;;;5053252;28;20056;-50
2021/04/23 03:47:38;;;;;;;14.85;5.95;;;7.00;64.70;;;;;;5053491;28;20048;-51
2021/04/23 03:50:06;;;;;;;;;;;7.00;64.40;;;;;;5052220;28;20095;-45
2021/04/23 03:52:33;;;;;;;16.08;5.43;;;7.00;64.60;;;;;;5055129;28;19943;-46
2021/04/23 03:55:03;;;;;;;15.63;5.65;;;6.90;64.70;;;;;;5054537;28;20053;-47
2021/04/23 03:57:29;;;;;;;11.43;5.05;;;6.90;64.90;;;;;;5053674;28;20045;-48
2021/04/23 03:59:56;;;;;;;;;;;6.90;64.90;;;;;;5055604;28;20045;-49
2021/04/23 04:02:23;;;;;;;12.32;5.10;;;6.90;65.10;;;;;;5054848;28;19970;-50
2021/04/23 04:04:50;;;;;;;;;;;7.00;65.10;;;;;;5053899;28;20044;-49
2021/04/23 04:07:16;;;;;;;12.77;5.35;;;7.00;65.10;;;;;;5053017;28;19970;-47
2021/04/23 04:09:43;;;;;;;16.65;5.65;;;7.00;65.00;;;;;;5038675;28;20053;-49
2021/04/23 04:12:10;;;;;;;18.30;6.60;;;7.00;64.90;;;;;;5052724;28;20193;-47
2021/04/23 04:14:36;;;;;;;;;;;7.00;65.10;;;;;;5053088;28;20076;-44
2021/04/23 04:17:03;;;;;;;15.32;6.03;;;6.90;65.00;;;;;;5052444;28;19921;-49
2021/04/23 04:19:31;;;;;;;14.75;6.28;;;6.90;65.30;;;;;;5051667;28;20099;-45
2021/04/23 04:21:59;;;;;;;16.15;6.35;;;6.90;65.70;;;;;;5052790;28;20098;-46
2021/04/23 04:24:25;;;;;;;12.73;5.72;;;6.80;65.60;;;;;;5052226;28;20056;-46
2021/04/23 04:26:52;;;;;;;;;;;6.80;65.70;;;;;;5052744;28;20455;-43
2021/04/23 04:29:18;;;;;;;16.77;6.47;;;6.80;65.50;;;;;;5052141;28;19947;-48
2021/04/23 04:31:46;;;;;;;;;;;6.80;65.70;;;;;;5052239;28;20094;-45
2021/04/23 04:34:13;;;;;;;20.65;6.75;;;6.80;65.70;;;;;;5051374;28;19936;-45
2021/04/23 04:36:40;;;;;;;17.08;5.60;;;6.80;65.90;;;;;;5052264;28;20444;-47
2021/04/23 04:39:07;;;;;;;12.95;5.60;;;6.80;66.00;;;;;;5052016;28;20523;-46
2021/04/23 04:41:34;;;;;;;15.35;5.80;;;6.80;65.90;;;;;;5052079;28;20065;-51
2021/04/23 04:44:01;;;;;;;12.88;6.30;;;6.80;65.90;;;;;;5052204;28;20518;-47
2021/04/23 04:46:28;;;;;;;18.15;6.38;;;6.80;66.00;;;;;;5051845;28;20072;-47
2021/04/23 04:48:55;;;;;;;20.10;6.78;;;6.80;66.20;;;;;;5051197;28;20049;-47
2021/04/23 04:51:21;;;;;;;;;;;6.80;66.20;;;;;;5052266;28;20095;-46
2021/04/23 04:53:48;;;;;;;10.18;5.63;;;6.90;66.40;;;;;;5051998;28;20015;-48
2021/04/23 04:56:15;;;;;;;;;;;6.80;66.30;;;;;;5052595;28;20049;-48
2021/04/23 04:58:42;;;;;;;15.27;6.05;;;6.90;66.20;;;;;;5051620;28;19963;-48
2021/04/23 05:01:11;;;;;;;15.50;6.50;;;6.90;66.20;;;;;;5051225;28;20048;-47
2021/04/23 05:03:38;;;;;;;14.10;6.97;;;6.90;66.30;;;;;;5051317;28;20052;-47
2021/04/23 05:06:08;;;;;;;19.27;6.93;;;6.80;66.60;;;;;;5051793;28;20037;-44
2021/04/23 05:08:35;;;;;;;18.63;7.47;;;6.80;67.00;;;;;;5051445;28;20110;-46
2021/04/23 05:11:02;;;;;;;16.08;7.30;;;6.80;67.00;;;;;;5051058;28;20444;-50
2021/04/23 05:13:29;;;;;;;13.20;5.68;;;6.90;67.10;;;;;;5051906;28;20059;-45
2021/04/23 05:15:57;;;;;;;;;;;6.90;67.20;;;;;;5050475;28;20045;-46
2021/04/23 05:18:23;;;;;;;14.40;6.50;;;6.90;67.10;;;;;;5051550;28;19928;-47
2021/04/23 05:20:50;;;;;;;17.27;8.18;;;6.90;67.40;;;;;;5051462;28;20492;-45
2021/04/23 05:23:17;;;;;;;20.70;8.25;;;6.90;67.70;;;;;;5051275;28;20518;-48
2021/04/23 05:25:44;;;;;;;18.88;8.10;;;6.90;67.80;;;;;;5051559;28;20094;-46
2021/04/23 05:28:11;;;;;;;18.65;8.15;;;6.90;67.90;;;;;;5051953;28;20118;-45
2021/04/23 05:30:38;;;;;;;14.32;7.45;;;6.90;67.80;;;;;;5050766;28;20080;-49
2021/04/23 05:33:06;;;;;;;20.23;6.82;;;6.90;68.60;;;;;;5049774;28;20109;-49
2021/04/23 05:35:34;;;;;;;16.75;7.38;;;6.90;68.00;;;;;;5051511;28;20037;-46
2021/04/23 05:38:00;;;;;;;19.88;6.97;;;6.90;67.80;;;;;;5051668;28;20048;-46
2021/04/23 05:40:34;;;;;;;18.05;7.80;;;6.90;67.70;;;;;;5051048;28;20110;-44
2021/04/23 05:43:05;;;;;;;19.83;8.65;;;7.00;67.80;;;;;;5058963;28;20040;-45
2021/04/23 05:45:32;;;;;;;13.75;5.22;;;7.00;67.90;;;;;;5050744;28;20152;-47
2021/04/23 05:47:59;;;;;;;15.50;6.20;;;7.00;68.00;;;;;;5051341;28;20052;-47
2021/04/23 05:50:26;;;;;;;;;;;7.00;68.20;;;;;;5051182;28;20053;-45
2021/04/23 05:52:53;;;;;;;12.65;6.53;;;7.00;68.90;;;;;;5052700;28;19920;-45
2021/04/23 05:55:26;;;;;;;15.50;8.13;;;6.90;69.00;;;;;;5054940;28;20123;-48
2021/04/23 05:57:55;;;;;;;17.30;8.50;;;6.90;70.00;;;;;;5039831;28;20053;-42
2021/04/23 06:00:24;;;;;;;22.33;7.95;;;6.90;70.00;;;;;;5054514;28;20045;-45
2021/04/23 06:02:52;;;;;;;17.05;8.30;;;6.90;70.10;;;;;;5054618;28;20056;-45
2021/04/23 06:05:20;;;;;;;15.60;7.63;;;6.90;70.10;;;;;;5054620;28;20508;-47
2021/04/23 06:07:46;;;;;;;18.00;7.05;;;7.00;70.40;;;;;;5054630;28;20504;-45
2021/04/23 06:10:15;;;;;;;15.68;6.90;;;7.00;70.60;;;;;;5054271;28;20045;-45
2021/04/23 06:12:42;;;;;;;16.85;7.63;;;7.00;70.60;;;;;;5054731;28;20107;-46
2021/04/23 06:15:10;;;;;;;19.33;9.07;;;7.00;71.80;;;;;;5053976;28;20041;-48
2021/04/23 06:17:37;;;;;;;16.08;8.95;;;6.90;72.30;;;;;;5054637;28;20044;-43
2021/04/23 06:20:08;;;;;;;21.70;8.63;;;6.90;72.60;;;;;;5054497;28;20129;-50
2021/04/23 06:22:35;;;;;;;18.65;8.38;;;6.90;73.50;;;;;;5054423;28;20403;-46
2021/04/23 06:25:04;;;;;;;16.52;7.45;;;6.80;73.80;;;;;;5048180;28;20045;-47
2021/04/23 06:27:30;;;;;;;19.52;7.55;;;6.90;73.20;;;;;;5054492;28;20523;-46
2021/04/23 06:29:57;;;;;;;15.85;6.95;;;7.00;72.60;;;;;;5053920;28;20495;-45
2021/04/23 06:32:24;;;;;;;;;;;7.10;72.30;;;;;;5054341;28;20484;-47
2021/04/23 06:34:50;;;;;;;18.92;8.02;;;7.10;72.20;;;;;;5053863;28;19964;-50
2021/04/23 06:37:18;;;;;;;16.17;7.15;;;7.10;72.40;;;;;;5054155;28;20045;-48
2021/04/23 06:39:44;;;;;;;;;;;7.10;72.20;;;;;;5054581;28;20507;-47
2021/04/23 06:42:12;;;;;;;19.10;7.43;;;7.10;72.50;;;;;;5053970;28;20490;-49
2021/04/23 06:44:40;;;;;;;14.10;6.15;;;7.10;72.40;;;;;;5053114;28;20452;-47
2021/04/23 06:47:07;;;;;;;14.98;5.35;;;7.10;71.80;;;;;;5053540;28;20065;-48
2021/04/23 06:49:34;;;;;;;16.63;6.35;;;7.00;72.00;;;;;;5071913;28;20089;-47
2021/04/23 06:52:01;;;;;;;18.88;6.20;;;7.00;72.10;;;;;;5070245;28;20479;-44
2021/04/23 06:54:27;;;;;;;12.07;5.82;;;7.00;72.60;;;;;;5054217;28;20048;-47
2021/04/23 06:56:54;;;;;;;;;;;7.00;72.20;;;;;;5054214;28;20068;-47
2021/04/23 06:59:20;;;;;;;13.38;4.93;;;7.10;72.00;;;;;;5053017;28;20307;-47
2021/04/23 07:01:47;;;;;;;13.88;4.55;;;7.20;71.60;;;;;;5053545;28;20120;-51
2021/04/23 07:04:14;;;;;;;12.05;4.57;;;7.30;70.70;;;;;;5052913;28;20053;-47
2021/04/23 07:06:41;;;;;;;;;;;7.30;70.10;;;;;;5054069;28;20077;-48
2021/04/23 07:09:09;;;;;;;12.77;4.50;;;7.30;69.90;;;;;;5053067;28;19920;-50
2021/04/23 07:11:36;;;;;;;17.13;5.07;;;7.40;69.00;;;;;;5052998;28;20075;-46
2021/04/23 07:14:03;;;;;;;17.20;4.57;;;7.30;68.30;;;;;;5053384;28;20041;-48
2021/04/23 07:16:30;;;;;;;11.20;4.10;;;7.30;68.70;;;;;;5053180;28;20052;-47
2021/04/23 07:18:57;;;;;;;19.75;4.68;;;7.20;68.00;;;;;;5053416;28;20049;-48
2021/04/23 07:21:23;;;;;;;;;;;7.20;68.70;;;;;;5053743;28;20068;-46
2021/04/23 07:23:50;;;;;;;11.48;3.35;;;7.30;67.90;;;;;;5051935;28;19920;-47
2021/04/23 07:26:18;;;;;;;;;;;7.30;67.00;;;;;;5053799;28;20044;-48
2021/04/23 07:28:44;;;;;;;17.60;4.35;;;7.30;68.20;;;;;;5052933;28;19929;-46
2021/04/23 07:31:12;;;;;;;11.88;3.40;;;7.30;67.70;;;;;;5052494;28;20048;-46
2021/04/23 07:33:39;;;;;;;12.23;4.10;;;7.30;65.80;;;;;;5052610;28;20036;-48
2021/04/23 07:36:05;;;;;;;;;;;7.30;65.70;;;;;;5053132;28;20388;-46
2021/04/23 07:38:32;;;;;;;13.15;4.28;;;7.40;65.60;;;;;;5052654;28;19936;-46
2021/04/23 07:40:59;;;;;;;15.82;4.22;;;7.40;65.30;;;;;;5052606;28;20045;-44
2021/04/23 07:43:26;;;;;;;;;;;7.50;64.80;;;;;;5053431;28;20041;-49
2021/04/23 07:46:00;;;;;;;13.68;4.00;;;7.50;65.10;;;;;;5053117;28;20371;-45
2021/04/23 07:48:28;;;;;;;9.90;3.60;;;7.60;65.10;;;;;;5053248;28;20115;-45
2021/04/23 07:50:55;;;;;;;13.52;3.78;;;7.60;65.10;;;;;;5052713;28;20041;-48
2021/04/23 07:53:22;;;;;;;12.40;3.92;;;7.60;65.50;;;;;;5052382;28;20045;-50
2021/04/23 07:55:49;;;;;;;12.85;4.30;;;7.50;65.70;;;;;;5052682;28;20102;-51
2021/04/23 07:58:16;;;;;;;14.50;3.83;;;7.60;65.00;;;;;;5052707;28;20063;-49
2021/04/23 08:00:45;;;;;;;14.27;4.40;;;7.60;64.80;;;;;;5052549;28;20059;-52
2021/04/23 08:03:12;;;;;;;14.40;4.65;;;7.60;65.60;;;;;;5051878;28;20092;-51
2021/04/23 08:05:38;;;;;;;17.15;5.13;;;7.50;65.40;;;;;;5052699;28;20047;-43
2021/04/23 08:08:05;;;;;;;;;;;7.50;65.90;;;;;;5052802;28;20049;-43
2021/04/23 08:10:34;;;;;;;12.10;4.45;;;7.50;65.30;;;;;;5049564;28;19925;-45
2021/04/23 08:13:02;;;;;;;16.00;4.93;;;7.50;65.30;;;;;;5051370;28;20087;-46
2021/04/23 08:15:29;;;;;;;20.27;5.78;;;7.60;65.40;;;;;;5051694;28;20045;-54
2021/04/23 08:17:58;;;;;;;;;;;7.60;65.10;;;;;;5032901;28;20057;-46
2021/04/23 08:20:26;;;;;;;24.33;6.05;;;7.60;64.60;;;;;;5052486;28;19920;-47
2021/04/23 08:22:52;;;;;;;16.63;4.70;;;7.60;64.70;;;;;;5051762;28;20045;-45
2021/04/23 08:25:20;;;;;;;;;;;7.70;63.10;;;;;;5052451;28;20053;-44
2021/04/23 08:27:48;;;;;;;18.00;5.50;;;7.70;63.80;;;;;;5052168;28;19921;-47
2021/04/23 08:30:17;;;;;;;18.40;4.72;;;7.70;63.70;;;;;;5051935;28;20045;-45
2021/04/23 08:32:43;;;;;;;13.23;4.50;;;7.80;64.00;;;;;;5051714;28;20126;-47
2021/04/23 08:35:11;;;;;;;17.92;4.38;;;7.80;64.10;;;;;;5051861;28;20482;-47
2021/04/23 08:37:39;;;;;;;14.10;4.35;;;7.80;63.10;;;;;;5052138;28;20098;-46
2021/04/23 08:40:08;;;;;;;12.40;3.97;;;7.80;63.40;;;;;;5051038;28;20077;-44
2021/04/23 08:42:35;;;;;;;12.23;4.28;;;7.80;62.90;;;;;;5051892;28;20103;-46
2021/04/23 08:45:08;;;;;;;15.38;4.65;;;7.90;62.50;;;;;;5051750;28;20510;-47
2021/04/23 08:47:37;;;;;;;18.30;4.25;;;7.90;61.80;;;;;;5051512;28;20045;-51
2021/04/23 08:50:11;;;;;;;14.68;3.92;;;8.00;62.10;;;;;;5051471;28;20037;-47
2021/04/23 08:52:41;;;;;;;12.43;4.07;;;8.00;61.70;;;;;;5051862;28;20059;-47
2021/04/23 08:55:11;;;;;;;13.32;4.85;;;8.10;61.40;;;;;;5050963;28;20123;-48
2021/04/23 08:57:38;;;;;;;13.50;4.40;;;8.20;62.20;;;;;;5033971;28;20057;-46
2021/04/23 09:00:08;;;;;;;14.63;4.22;;;8.30;61.90;;;;;;5051691;28;20041;-47
2021/04/23 09:02:36;;;;;;;16.38;4.60;;;8.30;61.20;;;;;;5051252;28;20118;-50
2021/04/23 09:05:04;;;;;;;27.55;6.70;;;8.30;61.40;;;;;;5051389;28;20036;-46
2021/04/23 09:07:31;;;;;;;18.58;5.25;;;8.30;65.90;;;;;;5051552;28;20059;-48
2021/04/23 09:10:14;;;;;;;9.88;4.03;;;8.40;65.20;;;;;;5051038;28;20083;-46
2021/04/23 09:12:42;;;;;;;11.50;4.20;;;8.50;61.40;;;;;;5051721;28;20110;-47
2021/04/23 09:15:29;;;;;;;16.23;4.47;;;8.50;61.20;;;;;;5051285;28;20511;-47
2021/04/23 09:18:15;;;;;;;13.15;4.43;;;8.50;61.30;;;;;;5051441;28;20102;-45
2021/04/23 09:20:45;;;;;;;;;;;8.50;61.70;;;;;;5052127;28;20055;-45
2021/04/23 09:23:17;;;;;;;22.83;5.60;;;8.50;61.40;;;;;;5050677;28;20307;-43
2021/04/23 09:25:46;;;;;;;13.38;4.18;;;8.60;61.80;;;;;;5051165;28;20569;-44
2021/04/23 09:28:14;;;;;;;23.42;5.68;;;8.60;59.80;;;;;;5055424;28;20468;-48
2021/04/23 09:30:42;;;;;;;22.38;5.93;;;8.70;69.10;;;;;;5055686;28;20439;-51
2021/04/23 09:33:23;;;;;;;14.60;4.43;;;8.80;73.40;;;;;;5055635;28;20119;-45
2021/04/23 09:35:49;;;;;;;15.50;4.88;;;8.90;62.70;;;;;;5055398;28;20087;-48
2021/04/23 09:38:16;;;;;;;;;;;8.80;60.50;;;;;;5054553;28;20045;-46
2021/04/23 09:40:44;;;;;;;15.60;4.93;;;8.70;60.90;;;;;;5054910;28;19931;-46
2021/04/23 09:43:11;;;;;;;17.60;4.18;;;8.80;62.80;;;;;;5055461;28;20037;-48
2021/04/23 09:45:52;;;;;;;12.63;4.57;;;8.80;61.60;;;;;;5055158;28;20045;-50
2021/04/23 09:48:24;;;;;;;15.05;4.82;;;8.80;61.20;;;;;;5055496;28;20530;-47
2021/04/23 09:50:52;;;;;;;11.55;4.57;;;8.80;60.70;;;;;;5055039;28;20045;-49
2021/04/23 09:53:28;;;;;;;16.48;4.40;;;8.80;60.60;;;;;;5054463;28;20084;-50
2021/04/23 09:55:56;;;;;;;15.27;4.50;;;8.80;60.30;;;;;;5054780;28;20048;-50
2021/04/23 09:58:23;;;;;;;12.55;4.18;;;8.80;60.40;;;;;;5055147;28;20056;-48
2021/04/23 10:00:58;;;;;;;13.75;4.35;;;8.80;60.10;;;;;;5054875;28;20045;-46
2021/04/23 10:03:32;;;;;;;11.85;4.28;;;8.80;59.90;;;;;;5055205;28;20041;-46
2021/04/23 10:06:20;;;;;;;14.88;4.38;;;8.90;59.20;;;;;;5054320;28;20072;-46
2021/04/23 10:08:47;;;;;;;15.15;4.90;;;8.90;58.50;;;;;;5033560;28;20048;-48
2021/04/23 10:11:15;;;;;;;13.70;4.03;;;9.00;57.90;;;;;;5056121;28;20438;-44
2021/04/23 10:13:41;;;;;;;16.27;3.95;;;9.00;58.40;;;;;;5054589;28;20099;-43
2021/04/23 10:16:09;;;;;;;12.30;3.53;;;9.00;58.70;;;;;;5054135;28;20099;-48
2021/04/23 10:18:36;;;;;;;10.80;3.80;;;9.00;58.70;;;;;;5054649;28;20049;-47
2021/04/23 10:21:03;;;;;;;13.65;4.22;;;9.10;59.30;;;;;;5054164;28;20037;-47
2021/04/23 10:23:30;;;;;;;18.13;4.75;;;9.20;59.20;;;;;;5053465;28;20041;-46
2021/04/23 10:25:58;;;;;;;15.98;6.63;;;9.20;59.10;;;;;;5054175;28;20060;-48
2021/04/23 10:28:26;;;;;;;11.00;4.43;;;9.30;58.90;;;;;;5054381;28;20040;-49
2021/04/23 10:30:54;;;;;;;17.42;4.78;;;9.50;59.10;;;;;;5046156;28;20464;-48
2021/04/23 10:33:23;;;;;;;14.32;4.63;;;9.40;58.60;;;;;;5054334;28;20047;-46
2021/04/23 10:35:53;;;;;;;36.25;17.08;;;9.50;58.10;;;;;;5053606;28;20045;-46
2021/04/23 10:38:24;;;;;;;30.67;14.90;;;9.50;59.10;;;;;;5053673;28;20051;-48
2021/04/23 10:40:59;;;;;;;61.13;26.92;;;9.50;58.30;;;;;;5053822;28;20491;-48
2021/04/23 10:43:30;;;;;;;20.80;8.63;;;9.50;59.10;;;;;;5053131;28;20499;-50
2021/04/23 10:46:09;;;;;;;10.82;4.32;;;9.70;58.80;;;;;;5053892;28;20098;-46
2021/04/23 10:48:38;;;;;;;15.85;4.72;;;9.70;58.00;;;;;;5049609;28;20107;-45
2021/04/23 10:51:10;;;;;;;20.88;7.25;;;9.70;55.30;;;;;;5053511;28;20140;-49
2021/04/23 10:53:43;;;;;;;45.35;19.90;;;9.70;55.90;;;;;;5054022;28;20045;-49
2021/04/23 10:56:33;;;;;;;16.98;5.13;;;9.70;54.50;;;;;;5053421;28;20148;-46
2021/04/23 10:59:20;;;;;;;12.65;4.57;;;9.70;53.30;;;;;;5053831;28;20071;-46
2021/04/23 11:01:49;;;;;;;15.50;4.75;;;9.70;54.20;;;;;;5049819;28;20064;-48
2021/04/23 11:04:17;;;;;;;17.08;4.90;;;9.70;55.30;;;;;;5053438;28;20053;-47
2021/04/23 11:06:52;;;;;;;16.27;4.53;;;9.80;55.00;;;;;;5053494;28;20048;-47
2021/04/23 11:09:19;;;;;;;15.57;4.97;;;9.80;56.30;;;;;;5053216;28;20423;-49
2021/04/23 11:12:07;;;;;;;27.35;11.88;;;9.90;56.30;;;;;;5053685;28;20049;-46
2021/04/23 11:14:37;;;;;;;29.55;13.57;;;10.00;55.30;;;;;;5053306;28;20067;-46
2021/04/23 11:17:17;;;;;;;15.95;5.88;;;10.00;54.30;;;;;;5052827;28;20429;-46
2021/04/23 11:19:48;;;;;;;13.45;4.25;;;9.90;54.30;;;;;;5052930;28;20045;-47
2021/04/23 11:22:18;;;;;;;27.92;14.88;;;9.90;54.90;;;;;;5053548;28;20045;-48
2021/04/23 11:25:11;;;;;;;14.60;4.63;;;9.90;55.20;;;;;;5053200;28;20061;-47
2021/04/23 11:28:00;;;;;;;11.52;4.55;;;10.00;55.20;;;;;;5052934;28;20071;-49
2021/04/23 11:30:28;;;;;;;17.25;4.65;;;10.10;55.30;;;;;;5053216;28;20041;-49
2021/04/23 11:32:56;;;;;;;13.68;4.88;;;10.20;55.60;;;;;;5052894;28;20037;-47
2021/04/23 11:35:25;;;;;;;13.95;5.20;;;10.20;54.90;;;;;;5052747;28;20454;-48
2021/04/23 11:37:58;;;;;;;13.82;5.32;;;10.30;54.90;;;;;;5052874;28;20132;-47
2021/04/23 11:40:29;;;;;;;15.05;4.78;;;10.30;55.00;;;;;;5052669;28;20045;-46
2021/04/23 11:43:00;;;;;;;14.68;5.20;;;10.30;55.40;;;;;;5053151;28;20601;-49
2021/04/23 11:45:29;;;;;;;12.52;4.68;;;10.40;54.50;;;;;;5053136;28;20033;-48
2021/04/23 11:48:04;;;;;;;16.70;5.35;;;10.50;54.80;;;;;;5052137;28;20446;-49
2021/04/23 11:50:46;;;;;;;17.60;5.13;;;10.50;54.10;;;;;;5053014;28;20487;-49
2021/04/23 11:53:15;;;;;;;16.60;5.28;;;10.60;54.40;;;;;;5052871;28;20049;-49
2021/04/23 11:55:46;;;;;;;11.07;4.22;;;10.70;54.20;;;;;;5052447;28;20516;-47
2021/04/23 11:58:16;;;;;;;50.10;22.42;;;10.80;53.20;;;;;;5052848;28;20048;-48
2021/04/23 12:00:45;;;;;;;14.80;4.88;;;10.70;54.90;;;;;;5052323;28;20514;-49
2021/04/23 12:03:19;;;;;;;14.60;5.43;;;10.70;54.20;;;;;;5051824;28;20068;-48
2021/04/23 12:05:56;;;;;;;14.48;4.80;;;10.70;53.40;;;;;;5052360;28;20112;-47
2021/04/23 12:08:31;;;;;;;17.08;6.50;;;10.70;52.80;;;;;;5052487;28;20048;-47
2021/04/23 12:11:00;;;;;;;13.43;4.90;;;10.80;53.20;;;;;;5051808;28;20487;-47
2021/04/23 12:13:34;;;;;;;12.55;5.50;;;10.90;52.90;;;;;;5053762;28;20103;-52
2021/04/23 12:16:03;;;;;;;15.13;5.95;;;11.00;52.90;;;;;;5051901;28;20049;-46
2021/04/23 12:18:31;;;;;;;15.35;4.85;;;10.90;51.80;;;;;;5054811;28;20468;-48
2021/04/23 12:21:02;;;;;;;17.35;5.00;;;10.90;52.40;;;;;;5051811;28;20044;-49
2021/04/23 12:23:33;;;;;;;18.10;5.22;;;11.00;53.30;;;;;;5052299;28;20053;-44
2021/04/23 12:26:01;;;;;;;13.15;5.10;;;11.10;53.30;;;;;;5051842;28;20045;-47
2021/04/23 12:28:35;;;;;;;13.90;4.82;;;11.00;53.00;;;;;;5041312;28;20075;-46
2021/04/23 12:31:07;;;;;;;18.35;7.13;;;11.00;53.20;;;;;;5051736;28;20303;-47
2021/04/23 12:33:47;;;;;;;34.85;6.88;;;11.10;53.00;;;;;;5041255;28;20045;-48
2021/04/23 12:36:33;;;;;;;13.82;5.32;;;11.20;51.30;;;;;;5051905;28;20045;-48
2021/04/23 12:39:22;;;;;;;18.05;5.70;;;11.30;51.40;;;;;;5051653;28;20051;-47
2021/04/23 12:41:51;;;;;;;16.02;5.20;;;11.20;51.20;;;;;;5051955;28;20140;-45
2021/04/23 12:44:32;;;;;;;12.02;4.68;;;11.20;52.00;;;;;;5051941;28;20059;-47
2021/04/23 12:47:09;;;;;;;17.98;6.95;;;11.20;51.90;;;;;;5050939;28;20559;-46
2021/04/23 12:49:41;;;;;;;16.85;4.85;;;11.20;52.40;;;;;;5050798;28;20049;-47
2021/04/23 12:52:11;;;;;;;13.98;6.20;;;11.30;52.40;;;;;;5051878;28;20044;-44
2021/04/23 12:54:40;;;;;;;21.83;8.30;;;11.40;52.20;;;;;;5052044;28;20053;-48
2021/04/23 12:57:10;;;;;;;14.73;4.80;;;11.40;52.50;;;;;;5051563;28;20052;-46
2021/04/23 12:59:40;;;;;;;11.30;4.20;;;11.50;51.80;;;;;;5051685;28;20060;-46
2021/04/23 13:02:25;;;;;;;18.80;5.28;;;11.50;49.10;;;;;;5050506;28;20083;-47
2021/04/23 13:05:04;;;;;;;15.75;6.55;;;11.50;50.60;;;;;;5051734;28;20048;-48